createdAt,value
2023-04-21T00:01:45.679Z,26.73
2023-04-21T00:04:15.288Z,26.17
2023-04-21T00:06:44.882Z,26.13
2023-04-21T00:09:14.324Z,26.87
2023-04-21T00:11:42.388Z,25.97
2023-04-21T00:14:10.405Z,25.03
2023-04-21T00:16:38.488Z,26.47
2023-04-21T00:19:07.697Z,28.80
2023-04-21T00:21:36.145Z,26.87
2023-04-21T00:24:04.283Z,27.47
2023-04-21T00:26:33.735Z,25.37
2023-04-21T00:29:01.729Z,25.47
2023-04-21T00:31:30.540Z,26.73
2023-04-21T00:33:58.567Z,26.57
2023-04-21T00:36:28.213Z,28.73
2023-04-21T00:38:56.311Z,26.70
2023-04-21T00:41:24.792Z,27.13
2023-04-21T00:44:07.537Z,27.77
2023-04-21T00:46:36.655Z,27.13
2023-04-21T00:49:07.140Z,27.20
2023-04-21T00:51:36.911Z,26.93
2023-04-21T00:54:06.854Z,26.70
2023-04-21T00:56:36.941Z,27.90
2023-04-21T00:59:06.464Z,28.13
2023-04-21T01:01:36.352Z,26.20
2023-04-21T01:04:06.147Z,29.30
2023-04-21T01:06:35.088Z,26.73
2023-04-21T01:09:05.569Z,28.53
2023-04-21T01:11:33.545Z,27.03
2023-04-21T01:14:01.682Z,27.67
2023-04-21T01:16:32.645Z,27.50
2023-04-21T01:19:01.078Z,27.60
2023-04-21T01:21:33.479Z,28.83
2023-04-21T01:24:02.979Z,28.50
2023-04-21T01:26:31.014Z,30.10
2023-04-21T01:28:59.071Z,29.47
2023-04-21T01:31:27.356Z,26.17
2023-04-21T01:33:56.129Z,28.13
2023-04-21T01:36:24.265Z,27.50
2023-04-21T01:38:52.203Z,30.03
2023-04-21T01:41:21.704Z,29.00
2023-04-21T01:43:49.837Z,30.50
2023-04-21T01:46:21.234Z,31.57
2023-04-21T01:48:49.284Z,28.83
2023-04-21T01:51:17.367Z,30.07
2023-04-21T01:53:45.421Z,29.63
2023-04-21T01:56:15.325Z,29.43
2023-04-21T01:58:45.048Z,29.10
2023-04-21T02:01:13.047Z,30.03
2023-04-21T02:03:41.832Z,32.77
2023-04-21T02:06:09.985Z,29.20
2023-04-21T02:08:37.959Z,27.33
2023-04-21T02:11:06.244Z,28.90
2023-04-21T02:13:34.237Z,26.93
2023-04-21T02:16:13.304Z,27.80
2023-04-21T02:18:42.367Z,25.63
2023-04-21T02:21:10.905Z,26.10
2023-04-21T02:23:38.903Z,27.13
2023-04-21T02:26:07.069Z,26.47
2023-04-21T02:28:35.094Z,26.13
2023-04-21T02:31:04.701Z,26.03
2023-04-21T02:33:32.892Z,24.47
2023-04-21T02:36:00.888Z,28.97
2023-04-21T02:38:28.844Z,25.77
2023-04-21T02:40:57.596Z,28.10
2023-04-21T02:43:25.815Z,24.97
2023-04-21T02:45:54.051Z,25.40
2023-04-21T02:48:23.981Z,25.60
2023-04-21T02:50:53.209Z,25.57
2023-04-21T02:53:21.441Z,26.97
2023-04-21T02:55:50.316Z,26.07
2023-04-21T02:58:20.221Z,26.83
2023-04-21T03:00:48.234Z,27.23
2023-04-21T03:03:17.130Z,26.43
2023-04-21T03:05:46.630Z,28.03
2023-04-21T03:08:14.663Z,26.77
2023-04-21T03:10:43.440Z,26.50
2023-04-21T03:13:11.377Z,27.07
2023-04-21T03:15:39.357Z,27.77
2023-04-21T03:18:07.470Z,26.03
2023-04-21T03:20:35.506Z,28.20
2023-04-21T03:23:05.304Z,29.53
2023-04-21T03:25:33.329Z,32.87
2023-04-21T03:28:01.328Z,29.30
2023-04-21T03:30:29.314Z,34.97
2023-04-21T03:32:58.720Z,32.37
2023-04-21T03:35:27.345Z,30.13
2023-04-21T03:37:55.489Z,29.13
2023-04-21T03:40:24.972Z,29.83
2023-04-21T03:42:53.279Z,30.23
2023-04-21T03:45:22.677Z,30.30
2023-04-21T03:47:54.171Z,30.63
2023-04-21T03:50:22.290Z,30.43
2023-04-21T03:52:50.305Z,29.53
2023-04-21T03:55:18.543Z,31.17
2023-04-21T03:57:47.985Z,29.87
2023-04-21T04:00:16.624Z,31.43
2023-04-21T04:02:44.792Z,28.67
2023-04-21T04:05:12.947Z,32.43
2023-04-21T04:07:40.953Z,31.87
2023-04-21T04:10:09.221Z,35.23
2023-04-21T04:12:38.011Z,32.50
2023-04-21T04:15:08.689Z,30.53
2023-04-21T04:17:36.699Z,29.40
2023-04-21T04:20:06.443Z,30.50
2023-04-21T04:22:34.725Z,29.53
2023-04-21T04:25:03.404Z,30.27
2023-04-21T04:27:31.966Z,28.10
2023-04-21T04:30:00.127Z,28.60
2023-04-21T04:32:29.596Z,29.90
2023-04-21T04:34:58.852Z,27.53
2023-04-21T04:37:28.317Z,27.90
2023-04-21T04:39:56.561Z,29.67
2023-04-21T04:42:25.163Z,30.63
2023-04-21T04:44:54.787Z,29.83
2023-04-21T04:47:22.854Z,28.67
2023-04-21T04:49:52.479Z,27.83
2023-04-21T04:52:20.421Z,26.63
2023-04-21T04:54:48.453Z,27.87
2023-04-21T04:57:16.532Z,26.73
2023-04-21T04:59:44.784Z,28.97
2023-04-21T05:02:13.712Z,25.60
2023-04-21T05:04:42.430Z,26.17
2023-04-21T05:07:12.063Z,25.00
2023-04-21T05:09:40.133Z,25.37
2023-04-21T05:12:08.940Z,24.33
2023-04-21T05:14:37.485Z,24.43
2023-04-21T05:17:05.655Z,24.20
2023-04-21T05:19:36.944Z,24.23
2023-04-21T05:22:06.602Z,24.27
2023-04-21T05:24:36.622Z,25.30
2023-04-21T05:27:05.453Z,24.53
2023-04-21T05:29:34.236Z,23.70
2023-04-21T05:32:02.368Z,27.83
2023-04-21T05:34:30.354Z,24.17
2023-04-21T05:36:58.483Z,24.37
2023-04-21T05:39:29.118Z,27.93
2023-04-21T05:41:58.507Z,24.77
2023-04-21T05:44:26.538Z,23.33
2023-04-21T05:46:54.477Z,22.97
2023-04-21T05:49:22.469Z,22.10
2023-04-21T05:51:50.883Z,28.37
2023-04-21T05:54:19.696Z,23.20
2023-04-21T05:56:48.568Z,21.57
2023-04-21T05:59:18.087Z,22.00
2023-04-21T06:01:46.181Z,21.83
2023-04-21T06:04:14.728Z,21.70
2023-04-21T06:06:44.283Z,21.27
2023-04-21T06:09:15.584Z,21.93
2023-04-21T06:11:43.632Z,19.70
2023-04-21T06:14:11.754Z,20.67
2023-04-21T06:16:41.707Z,20.20
2023-04-21T06:19:09.878Z,20.07
2023-04-21T06:21:37.930Z,19.47
2023-04-21T06:24:06.598Z,18.17
2023-04-21T06:26:34.586Z,18.57
2023-04-21T06:29:03.236Z,17.97
2023-04-21T06:31:31.288Z,18.53
2023-04-21T06:34:00.665Z,18.37
2023-04-21T06:36:28.793Z,18.13
2023-04-21T06:38:56.866Z,17.73
2023-04-21T06:41:25.260Z,17.90
2023-04-21T06:43:53.255Z,17.63
2023-04-21T06:46:21.410Z,17.20
2023-04-21T06:48:49.562Z,16.33
2023-04-21T06:51:18.998Z,17.03
2023-04-21T06:53:47.379Z,15.83
2023-04-21T06:56:15.564Z,15.37
2023-04-21T06:58:46.745Z,21.63
2023-04-21T07:01:14.829Z,16.67
2023-04-21T07:03:43.028Z,15.60
2023-04-21T07:06:11.499Z,15.33
2023-04-21T07:08:41.434Z,16.50
2023-04-21T07:11:09.568Z,16.27
2023-04-21T07:13:37.575Z,15.70
2023-04-21T07:16:06.092Z,17.37
2023-04-21T07:18:38.523Z,16.20
2023-04-21T07:21:06.773Z,15.80
2023-04-21T07:23:34.789Z,16.53
2023-04-21T07:26:04.205Z,15.87
2023-04-21T07:28:32.242Z,15.67
2023-04-21T07:31:02.312Z,15.43
2023-04-21T07:33:31.619Z,15.13
2023-04-21T07:35:59.768Z,14.80
2023-04-21T07:38:28.519Z,15.37
2023-04-21T07:40:56.603Z,14.73
2023-04-21T07:43:27.056Z,14.53
2023-04-21T07:45:55.162Z,15.27
2023-04-21T07:48:23.197Z,15.67
2023-04-21T07:50:51.344Z,16.27
2023-04-21T07:53:19.340Z,16.50
2023-04-21T07:55:47.845Z,16.43
2023-04-21T07:58:16.508Z,15.63
2023-04-21T08:00:46.041Z,15.27
2023-04-21T08:03:14.367Z,16.63
2023-04-21T08:05:42.480Z,16.30
2023-04-21T08:08:10.945Z,17.27
2023-04-21T08:10:45.171Z,16.87
2023-04-21T08:16:00.339Z,15.97
2023-04-21T08:18:28.653Z,16.20
2023-04-21T08:20:58.014Z,16.17
2023-04-21T08:23:26.248Z,17.40
2023-04-21T08:25:54.642Z,16.10
2023-04-21T08:28:22.756Z,15.77
2023-04-21T08:30:51.269Z,16.50
2023-04-21T08:33:20.834Z,16.60
2023-04-21T08:36:02.486Z,14.82
2023-04-21T08:38:35.365Z,16.67
2023-04-21T08:41:05.498Z,15.68
2023-04-21T08:43:34.605Z,15.23
2023-04-21T08:46:07.247Z,15.13
2023-04-21T08:48:38.588Z,16.17
2023-04-21T08:51:09.970Z,14.80
2023-04-21T08:53:38.492Z,14.45
2023-04-21T08:56:11.287Z,15.23
2023-04-21T08:58:41.572Z,15.00
2023-04-21T09:01:09.818Z,15.10
2023-04-21T09:03:39.972Z,13.98
2023-04-21T09:06:10.101Z,16.15
2023-04-21T09:08:43.508Z,15.63
2023-04-21T09:11:15.605Z,15.63
2023-04-21T09:13:44.439Z,14.38
2023-04-21T09:16:20.149Z,14.43
2023-04-21T09:18:50.681Z,15.38
2023-04-21T09:21:22.017Z,13.15
2023-04-21T09:23:51.297Z,12.40
2023-04-21T09:26:21.364Z,13.00
2023-04-21T09:28:50.871Z,13.25
2023-04-21T09:31:20.912Z,13.85
2023-04-21T09:36:24.717Z,13.68
2023-04-21T09:39:20.728Z,13.55
2023-04-21T09:41:46.668Z,14.50
2023-04-21T09:44:14.925Z,14.13
2023-04-21T09:46:45.275Z,14.00
2023-04-21T09:49:17.568Z,14.48
2023-04-21T09:56:54.093Z,14.02
2023-04-21T09:59:27.748Z,13.48
2023-04-21T10:01:58.904Z,13.43
2023-04-21T10:04:30.288Z,11.88
2023-04-21T10:06:59.582Z,11.75
2023-04-21T10:09:32.409Z,10.43
2023-04-21T10:12:02.781Z,10.90
2023-04-21T10:14:31.029Z,11.68
2023-04-21T10:17:04.517Z,11.52
2023-04-21T10:19:39.328Z,11.55
2023-04-21T10:22:09.273Z,11.98
2023-04-21T10:24:40.371Z,11.80
2023-04-21T10:27:12.540Z,11.00
2023-04-21T10:29:55.390Z,9.70
2023-04-21T10:32:42.675Z,11.97
2023-04-21T10:35:14.622Z,10.97
2023-04-21T10:37:43.270Z,10.73
2023-04-21T10:43:08.232Z,11.73
2023-04-21T10:45:39.580Z,12.20
2023-04-21T10:48:14.964Z,13.50
2023-04-21T10:50:45.353Z,13.30
2023-04-21T10:53:14.443Z,14.43
2023-04-21T10:55:43.887Z,13.50
2023-04-21T10:58:12.189Z,13.07
2023-04-21T11:00:41.455Z,13.37
2023-04-21T11:03:10.148Z,11.60
2023-04-21T11:05:40.406Z,11.73
2023-04-21T11:08:14.520Z,11.23
2023-04-21T11:10:54.893Z,10.80
2023-04-21T11:13:24.881Z,10.33
2023-04-21T11:16:03.632Z,11.10
2023-04-21T11:18:38.964Z,10.90
2023-04-21T11:21:18.102Z,10.33
2023-04-21T11:23:52.978Z,10.23
2023-04-21T11:26:31.845Z,11.20
2023-04-21T11:29:03.225Z,11.67
2023-04-21T11:31:31.975Z,9.87
2023-04-21T11:34:00.637Z,9.87
2023-04-21T11:36:29.300Z,13.20
2023-04-21T11:38:59.458Z,13.70
2023-04-21T11:41:28.014Z,11.77
2023-04-21T11:43:56.669Z,12.50
2023-04-21T11:46:26.241Z,10.87
2023-04-21T11:49:02.030Z,11.60
2023-04-21T11:51:35.501Z,11.13
2023-04-21T11:54:06.925Z,8.30
2023-04-21T11:56:38.073Z,9.23
2023-04-21T11:59:08.770Z,9.70
2023-04-21T12:01:43.791Z,9.30
2023-04-21T12:04:16.136Z,7.50
2023-04-21T12:06:45.082Z,5.40
2023-04-21T12:09:21.138Z,4.97
2023-04-21T12:11:51.218Z,5.63
2023-04-21T12:14:20.971Z,6.07
2023-04-21T12:16:51.517Z,6.37
2023-04-21T12:19:26.663Z,6.17
2023-04-21T12:21:56.089Z,6.33
2023-04-21T12:24:26.021Z,8.23
2023-04-21T12:26:54.704Z,6.07
2023-04-21T12:29:22.670Z,4.90
2023-04-21T12:31:51.103Z,6.70
2023-04-21T12:34:19.603Z,5.67
2023-04-21T12:36:47.850Z,4.20
2023-04-21T12:39:17.435Z,4.97
2023-04-21T12:41:47.472Z,4.67
2023-04-21T12:44:16.814Z,6.33
2023-04-21T12:46:45.317Z,4.07
2023-04-21T12:49:14.498Z,3.83
2023-04-21T12:51:43.220Z,5.77
2023-04-21T12:54:11.751Z,4.03
2023-04-21T12:56:42.189Z,4.47
2023-04-21T12:59:12.738Z,4.17
2023-04-21T13:01:42.462Z,5.07
2023-04-21T13:04:10.787Z,3.80
2023-04-21T13:06:40.641Z,3.57
2023-04-21T13:09:08.713Z,3.97
2023-04-21T13:11:36.881Z,4.20
2023-04-21T13:14:05.097Z,3.63
2023-04-21T13:16:34.531Z,3.83
2023-04-21T13:19:02.584Z,4.43
2023-04-21T13:21:32.711Z,4.80
2023-04-21T13:24:03.282Z,4.07
2023-04-21T13:26:33.583Z,2.60
2023-04-21T13:29:01.716Z,4.23
2023-04-21T13:31:29.996Z,3.80
2023-04-21T13:33:59.781Z,2.37
2023-04-21T13:36:31.319Z,2.73
2023-04-21T13:39:00.826Z,4.07
2023-04-21T13:41:28.968Z,4.00
2023-04-21T13:43:57.072Z,2.00
2023-04-21T13:46:25.378Z,2.23
2023-04-21T13:48:53.989Z,2.80
2023-04-21T13:51:23.542Z,2.43
2023-04-21T13:53:51.594Z,2.40
2023-04-21T13:56:19.981Z,3.03
2023-04-21T13:58:48.439Z,2.30
2023-04-21T14:01:18.602Z,2.73
2023-04-21T14:03:49.110Z,3.10
2023-04-21T14:06:17.490Z,3.33
2023-04-21T14:08:46.830Z,3.73
2023-04-21T14:11:14.897Z,3.77
2023-04-21T14:13:52.990Z,3.00
2023-04-21T14:16:32.126Z,2.50
2023-04-21T14:19:00.552Z,2.87
2023-04-21T14:21:28.718Z,2.50
2023-04-21T14:23:58.900Z,2.23
2023-04-21T14:26:27.299Z,4.57
2023-04-21T14:28:55.385Z,2.20
2023-04-21T14:31:23.666Z,3.53
2023-04-21T14:33:51.843Z,2.57
2023-04-21T14:36:20.325Z,2.40
2023-04-21T14:38:48.548Z,2.97
2023-04-21T14:41:18.232Z,2.47
2023-04-21T14:43:47.714Z,2.33
2023-04-21T14:46:17.826Z,3.90
2023-04-21T14:48:46.571Z,3.53
2023-04-21T14:51:14.641Z,2.33
2023-04-21T14:53:42.817Z,2.77
2023-04-21T14:56:10.898Z,3.20
2023-04-21T14:58:40.282Z,2.70
2023-04-21T15:01:10.887Z,1.87
2023-04-21T15:03:39.363Z,2.07
2023-04-21T15:06:08.016Z,2.13
2023-04-21T15:08:37.431Z,2.10
2023-04-21T15:11:06.182Z,2.20
2023-04-21T15:13:35.692Z,2.20
2023-04-21T15:16:05.169Z,2.13
2023-04-21T15:18:33.196Z,4.10
2023-04-21T15:21:01.691Z,4.00
2023-04-21T15:23:29.819Z,2.17
2023-04-21T15:26:00.771Z,2.90
2023-04-21T15:28:28.877Z,2.93
2023-04-21T15:30:56.943Z,2.40
2023-04-21T15:33:26.775Z,2.60
2023-04-21T15:35:54.772Z,2.37
2023-04-21T15:38:22.977Z,2.50
2023-04-21T15:41:00.800Z,2.30
2023-04-21T15:43:30.366Z,3.37
2023-04-21T15:45:58.398Z,2.67
2023-04-21T15:48:28.235Z,3.27
2023-04-21T15:50:57.322Z,2.00
2023-04-21T15:53:25.759Z,2.30
2023-04-21T15:55:53.749Z,2.60
2023-04-21T15:58:22.270Z,4.60
2023-04-21T16:00:50.791Z,8.53
2023-04-21T16:03:18.928Z,3.63
2023-04-21T16:05:48.876Z,3.60
2023-04-21T16:08:17.093Z,3.73
2023-04-21T16:10:45.225Z,2.87
2023-04-21T16:13:13.853Z,2.20
2023-04-21T16:15:42.070Z,3.67
2023-04-21T16:18:10.211Z,4.23
2023-04-21T16:20:38.812Z,2.37
2023-04-21T16:23:08.175Z,3.23
2023-04-21T16:25:36.606Z,3.40
2023-04-21T16:28:06.327Z,2.40
2023-04-21T16:30:35.064Z,2.10
2023-04-21T16:33:03.261Z,2.40
2023-04-21T16:35:31.682Z,4.50
2023-04-21T16:38:00.114Z,3.23
2023-04-21T16:40:29.697Z,3.03
2023-04-21T16:42:57.702Z,3.10
2023-04-21T16:45:26.603Z,2.20
2023-04-21T16:47:54.970Z,3.50
2023-04-21T16:50:23.932Z,2.53
2023-04-21T16:52:52.051Z,2.73
2023-04-21T16:55:20.476Z,3.43
2023-04-21T16:57:50.056Z,2.30
2023-04-21T17:00:18.683Z,2.53
2023-04-21T17:02:47.275Z,3.77
2023-04-21T17:05:16.395Z,3.23
2023-04-21T17:07:45.098Z,5.67
2023-04-21T17:10:13.174Z,3.30
2023-04-21T17:12:41.263Z,3.13
2023-04-21T17:15:11.892Z,5.63
2023-04-21T17:17:43.345Z,2.87
2023-04-21T17:20:13.750Z,3.33
2023-04-21T17:22:42.899Z,3.80
2023-04-21T17:25:11.765Z,2.77
2023-04-21T17:27:40.833Z,4.07
2023-04-21T17:30:11.445Z,2.87
2023-04-21T17:32:40.613Z,4.07
2023-04-21T17:35:09.360Z,3.37
2023-04-21T17:37:40.576Z,3.67
2023-04-21T17:40:10.337Z,3.63
2023-04-21T17:42:38.628Z,4.33
2023-04-21T17:45:08.577Z,4.57
2023-04-21T17:47:39.021Z,5.10
2023-04-21T17:50:10.116Z,5.00
2023-04-21T17:52:38.137Z,3.30
2023-04-21T17:55:07.106Z,4.30
2023-04-21T17:57:35.698Z,3.70
2023-04-21T18:00:07.818Z,3.93
2023-04-21T18:02:37.836Z,7.30
2023-04-21T18:05:06.843Z,3.93
2023-04-21T18:07:34.963Z,5.10
2023-04-21T18:10:03.096Z,6.67
2023-04-21T18:12:31.248Z,6.03
2023-04-21T18:14:59.564Z,4.37
2023-04-21T18:17:27.736Z,5.37
2023-04-21T18:19:57.200Z,5.33
2023-04-21T18:22:25.991Z,5.77
2023-04-21T18:24:54.129Z,5.33
2023-04-21T18:27:22.899Z,7.50
2023-04-21T18:29:51.322Z,4.90
2023-04-21T18:32:19.395Z,5.13
2023-04-21T18:34:47.378Z,4.73
2023-04-21T18:37:16.770Z,4.37
2023-04-21T18:39:45.479Z,8.00
2023-04-21T18:42:13.528Z,14.17
2023-04-21T18:44:41.603Z,35.63
2023-04-21T18:47:09.598Z,12.73
2023-04-21T18:49:39.080Z,9.37
2023-04-21T18:52:07.564Z,8.23
2023-04-21T18:54:37.354Z,7.37
2023-04-21T18:57:06.103Z,4.50
2023-04-21T18:59:34.120Z,5.87
2023-04-21T19:02:04.089Z,4.90
2023-04-21T19:04:33.040Z,3.73
2023-04-21T19:07:01.991Z,4.10
2023-04-21T19:09:30.244Z,5.10
2023-04-21T19:12:00.106Z,3.60
2023-04-21T19:14:34.631Z,5.87
2023-04-21T19:17:07.961Z,4.77
2023-04-21T19:19:36.192Z,3.97
2023-04-21T19:22:04.727Z,5.37
2023-04-21T19:24:33.268Z,6.47
2023-04-21T19:27:03.494Z,5.77
2023-04-21T19:29:32.555Z,4.53
2023-04-21T19:32:02.101Z,4.43
2023-04-21T19:34:30.218Z,4.20
2023-04-21T19:36:58.535Z,5.07
2023-04-21T19:39:26.602Z,4.17
2023-04-21T19:41:54.823Z,5.00
2023-04-21T19:44:24.269Z,6.07
2023-04-21T19:46:52.864Z,7.00
2023-04-21T19:49:20.898Z,5.50
2023-04-21T19:51:49.316Z,5.03
2023-04-21T19:54:18.041Z,6.93
2023-04-21T19:56:46.383Z,6.07
2023-04-21T19:59:14.373Z,7.20
2023-04-21T20:01:43.845Z,7.67
2023-04-21T20:04:12.530Z,6.47
2023-04-21T20:06:41.912Z,7.53
2023-04-21T20:09:10.458Z,6.47
2023-04-21T20:11:38.542Z,9.93
2023-04-21T20:14:06.589Z,7.60
2023-04-21T20:16:34.730Z,6.63
2023-04-21T20:19:05.180Z,8.13
2023-04-21T20:21:33.420Z,6.87
2023-04-21T20:24:02.421Z,10.70
2023-04-21T20:26:30.520Z,8.50
2023-04-21T20:28:58.918Z,8.83
2023-04-21T20:31:27.466Z,9.23
2023-04-21T20:33:55.487Z,11.63
2023-04-21T20:36:25.232Z,9.83
2023-04-21T20:38:53.310Z,8.57
2023-04-21T20:41:23.248Z,5.00
2023-04-21T20:43:51.674Z,5.33
2023-04-21T20:46:19.812Z,4.97
2023-04-21T20:48:47.818Z,3.90
2023-04-21T20:51:15.815Z,5.87
2023-04-21T20:53:45.237Z,4.73
2023-04-21T20:56:13.677Z,6.43
2023-04-21T20:58:41.734Z,4.00
2023-04-21T21:01:09.820Z,6.23
2023-04-21T21:03:38.267Z,5.27
2023-04-21T21:06:06.518Z,4.43
2023-04-21T21:08:36.195Z,6.27
2023-04-21T21:11:06.351Z,5.13
2023-04-21T21:13:34.409Z,5.10
2023-04-21T21:16:02.447Z,7.23
2023-04-21T21:18:34.495Z,10.13
2023-04-21T21:21:03.513Z,6.83
2023-04-21T21:23:32.776Z,5.70
2023-04-21T21:26:01.436Z,5.83
2023-04-21T21:28:31.103Z,5.57
2023-04-21T21:30:59.073Z,7.03
2023-04-21T21:33:27.487Z,6.37
2023-04-21T21:35:55.533Z,7.90
2023-04-21T21:38:23.542Z,5.30
2023-04-21T21:40:51.507Z,7.90
2023-04-21T21:43:19.521Z,5.03
2023-04-21T21:45:49.395Z,8.13
2023-04-21T21:48:17.618Z,5.60
2023-04-21T21:50:45.650Z,5.30
2023-04-21T21:53:13.755Z,7.03
2023-04-21T21:55:41.808Z,7.50
2023-04-21T21:58:10.523Z,5.47
2023-04-21T22:00:39.463Z,6.90
2023-04-21T22:03:09.265Z,6.40
2023-04-21T22:05:37.454Z,5.33
2023-04-21T22:08:05.728Z,5.20
2023-04-21T22:10:34.709Z,6.13
2023-04-21T22:13:02.820Z,8.73
2023-04-21T22:15:30.823Z,7.43
2023-04-21T22:17:58.850Z,7.33
2023-04-21T22:20:28.239Z,8.10
2023-04-21T22:22:57.210Z,5.60
2023-04-21T22:25:27.083Z,8.20
2023-04-21T22:27:55.477Z,6.17
2023-04-21T22:30:23.544Z,5.33
2023-04-21T22:32:51.703Z,6.13
2023-04-21T22:35:20.114Z,6.40
2023-04-21T22:37:49.482Z,6.83
2023-04-21T22:40:17.476Z,8.07
2023-04-21T22:42:45.499Z,6.30
2023-04-21T22:45:13.610Z,6.57
2023-04-21T22:47:41.881Z,7.40
2023-04-21T22:50:11.645Z,6.30
2023-04-21T22:52:39.672Z,5.30
2023-04-21T22:55:10.163Z,6.53
2023-04-21T22:57:39.008Z,6.17
2023-04-21T23:00:10.188Z,8.73
2023-04-21T23:02:38.342Z,9.63
2023-04-21T23:05:07.508Z,6.03
2023-04-21T23:07:36.556Z,7.43
2023-04-21T23:10:05.166Z,6.47
2023-04-21T23:12:34.897Z,8.23
2023-04-21T23:15:02.905Z,7.47
2023-04-21T23:17:30.991Z,8.43
2023-04-21T23:19:59.012Z,8.90
2023-04-21T23:22:27.111Z,10.30
2023-04-21T23:24:55.993Z,7.27
2023-04-21T23:27:23.995Z,10.57
2023-04-21T23:29:53.403Z,9.03
2023-04-21T23:32:21.407Z,5.93
2023-04-21T23:34:49.471Z,7.67
2023-04-21T23:37:17.638Z,8.13
2023-04-21T23:39:45.848Z,8.93
2023-04-21T23:42:13.852Z,6.73
2023-04-21T23:44:41.810Z,8.33
2023-04-21T23:47:11.540Z,7.13
2023-04-21T23:49:40.465Z,6.70
2023-04-21T23:52:09.200Z,10.30
2023-04-21T23:54:37.173Z,9.77
2023-04-21T23:57:05.281Z,7.93
2023-04-21T23:59:33.352Z,8.20
